Time;durP1;ratioP1;P1;durP2;ratioP2;P2;SDS_P1;SDS_P2;PMS_P1;PMS_P2;Temp;Humidity;BMP_temperature;BMP_pressure;BME280_temperature;BME280_humidity;BME280_pressure;Samples;Min_cycle;Max_cycle;Signal;HPM_P1;HPM_P2
2022/07/10 00:00:27;;;;;;;1.93;1.30;;;16.20;99.90;;;;;;5011673;28;20476;-70
2022/07/10 00:02:56;;;;;;;3.83;1.40;;;16.20;99.90;;;;;;5020380;28;20483;-70
2022/07/10 00:05:24;;;;;;;6.00;1.50;;;16.20;99.90;;;;;;5015115;28;20456;-71
2022/07/10 00:07:51;;;;;;;1.33;1.07;;;16.30;99.90;;;;;;5024469;28;20503;-71
2022/07/10 00:10:19;;;;;;;2.33;1.70;;;16.30;99.90;;;;;;5018426;28;20434;-70
2022/07/10 00:12:46;;;;;;;5.90;1.73;;;16.10;99.90;;;;;;5017778;28;20464;-71
2022/07/10 00:15:14;;;;;;;1.37;1.13;;;16.10;99.90;;;;;;5015694;28;20452;-70
2022/07/10 00:17:41;;;;;;;1.40;1.20;;;16.00;99.90;;;;;;5027443;28;21110;-69
2022/07/10 00:20:11;;;;;;;3.13;1.30;;;16.00;99.90;;;;;;5028734;28;20492;-70
2022/07/10 00:22:38;;;;;;;7.40;2.20;;;16.00;99.90;;;;;;5029206;28;20453;-70
2022/07/10 00:25:07;;;;;;;1.63;1.00;;;16.00;99.90;;;;;;5027911;28;20457;-70
2022/07/10 00:27:34;;;;;;;12.73;1.80;;;16.10;99.90;;;;;;5031313;28;20456;-70
2022/07/10 00:30:02;;;;;;;3.43;1.20;;;15.80;99.90;;;;;;5018483;28;21018;-69
2022/07/10 00:32:29;;;;;;;1.90;1.27;;;15.70;99.90;;;;;;5011738;28;21275;-69
2022/07/10 00:34:56;;;;;;;2.07;1.30;;;15.70;99.90;;;;;;5020492;28;20457;-69
2022/07/10 00:37:24;;;;;;;1.70;1.37;;;15.80;99.90;;;;;;5013591;28;20486;-70
2022/07/10 00:39:51;;;;;;;2.30;1.17;;;15.80;99.90;;;;;;5014500;28;20473;-70
2022/07/10 00:42:18;;;;;;;2.00;1.30;;;15.90;99.90;;;;;;5005540;28;20622;-70
2022/07/10 00:44:45;;;;;;;2.63;1.17;;;15.80;99.90;;;;;;5014189;28;20471;-70
2022/07/10 00:47:13;;;;;;;1.77;1.20;;;15.80;99.90;;;;;;5015438;28;20446;-70
2022/07/10 00:49:41;;;;;;;1.73;1.30;;;15.90;99.90;;;;;;5010463;28;20481;-70
2022/07/10 00:52:11;;;;;;;1.50;1.20;;;15.90;99.90;;;;;;5012724;28;20465;-69
2022/07/10 00:54:42;;;;;;;5.20;1.37;;;16.00;99.90;;;;;;5016170;28;20985;-69
2022/07/10 00:57:10;;;;;;;5.00;0.93;;;16.00;99.90;;;;;;5019261;28;20460;-69
2022/07/10 00:59:37;;;;;;;3.77;1.10;;;16.00;99.90;;;;;;5013449;28;20493;-69
2022/07/10 01:02:04;;;;;;;3.80;1.40;;;15.80;99.90;;;;;;5018810;28;20480;-69
2022/07/10 01:04:32;;;;;;;1.77;0.90;;;15.80;99.90;;;;;;5019392;28;21498;-69
2022/07/10 01:06:59;;;;;;;1.93;1.20;;;15.60;99.90;;;;;;5019895;28;20457;-69
2022/07/10 01:09:26;;;;;;;5.30;1.37;;;15.60;99.90;;;;;;5020483;28;21019;-70
2022/07/10 01:11:54;;;;;;;6.43;1.47;;;15.80;99.90;;;;;;5000759;28;20784;-69
2022/07/10 01:14:22;;;;;;;2.03;1.10;;;15.80;99.90;;;;;;5005915;28;20480;-70
2022/07/10 01:16:50;;;;;;;3.20;0.97;;;15.80;99.90;;;;;;5008836;28;20463;-69
2022/07/10 01:19:17;;;;;;;1.50;1.20;;;15.90;99.90;;;;;;5029714;22;22227;-68
2022/07/10 01:21:45;;;;;;;2.10;1.60;;;16.00;99.90;;;;;;5028044;28;20486;-69
2022/07/10 01:24:12;;;;;;;3.53;1.30;;;15.90;99.90;;;;;;5027816;28;20472;-69
2022/07/10 01:26:42;;;;;;;2.70;1.63;;;16.00;99.90;;;;;;5036708;28;20928;-69
2022/07/10 01:29:10;;;;;;;2.07;1.00;;;16.00;99.90;;;;;;5029838;28;20788;-69
2022/07/10 01:31:37;;;;;;;1.87;1.27;;;15.90;99.90;;;;;;5029524;28;20452;-69
2022/07/10 01:34:08;;;;;;;2.83;1.50;;;16.00;99.90;;;;;;5035395;28;20468;-69
2022/07/10 01:36:36;;;;;;;8.27;1.70;;;16.10;99.90;;;;;;5036133;28;20460;-69
2022/07/10 01:39:04;;;;;;;12.50;1.50;;;16.10;99.90;;;;;;5033216;28;20479;-69
2022/07/10 01:41:31;;;;;;;6.23;1.50;;;16.00;99.90;;;;;;5036594;28;20585;-70
2022/07/10 01:43:58;;;;;;;7.63;2.40;;;15.90;99.90;;;;;;5031307;28;20460;-70
2022/07/10 01:46:25;;;;;;;2.70;1.10;;;15.90;99.90;;;;;;5032292;28;20465;-70
2022/07/10 01:48:52;;;;;;;3.73;1.30;;;15.80;99.90;;;;;;5032043;28;20553;-70
2022/07/10 01:51:19;;;;;;;1.83;1.40;;;15.90;99.90;;;;;;5034043;28;20448;-69
2022/07/10 01:53:46;;;;;;;2.50;1.10;;;15.90;99.90;;;;;;5034892;28;20855;-70
2022/07/10 01:56:15;;;;;;;2.03;1.40;;;15.90;99.90;;;;;;5033518;28;20687;-69
2022/07/10 01:58:42;;;;;;;3.47;1.33;;;15.90;99.90;;;;;;5037935;28;20647;-70
2022/07/10 02:01:09;;;;;;;1.80;1.20;;;15.90;99.90;;;;;;5039316;28;20496;-70
2022/07/10 02:06:21;;;;;;;1.50;1.00;;;15.80;99.90;;;;;;5032662;28;20748;-68
2022/07/10 02:08:48;;;;;;;1.60;1.10;;;15.60;99.90;;;;;;5024039;28;21067;-68
2022/07/10 02:11:16;;;;;;;4.07;1.43;;;15.60;99.90;;;;;;5032471;28;20819;-69
2022/07/10 02:13:43;;;;;;;1.50;1.20;;;15.60;99.90;;;;;;5023067;28;21134;-69
2022/07/10 02:16:10;;;;;;;2.40;1.00;;;15.50;99.90;;;;;;5042430;28;20456;-69
2022/07/10 02:18:37;;;;;;;2.20;0.97;;;15.50;99.90;;;;;;5031697;28;20496;-70
2022/07/10 02:21:04;;;;;;;4.80;1.20;;;15.40;99.90;;;;;;5035673;28;20483;-69
2022/07/10 02:23:31;;;;;;;3.53;1.33;;;15.60;99.90;;;;;;5028704;28;20513;-68
2022/07/10 02:25:58;;;;;;;13.17;1.63;;;15.60;99.90;;;;;;5032669;28;20434;-69
2022/07/10 02:28:26;;;;;;;4.07;2.00;;;15.40;99.90;;;;;;5033245;28;20485;-69
2022/07/10 02:30:53;;;;;;;6.93;2.13;;;15.40;99.90;;;;;;5034329;28;20456;-69
2022/07/10 02:33:20;;;;;;;3.60;1.60;;;15.30;99.90;;;;;;5027739;28;20464;-70
2022/07/10 02:35:47;;;;;;;3.23;2.40;;;15.40;99.90;;;;;;5029309;28;20460;-70
2022/07/10 02:38:13;;;;;;;1.83;1.30;;;15.50;99.90;;;;;;5026526;28;20485;-69
2022/07/10 02:40:40;;;;;;;5.07;1.33;;;15.40;99.90;;;;;;5032806;28;20456;-69
2022/07/10 02:43:07;;;;;;;2.03;1.20;;;15.50;99.90;;;;;;5031790;28;20468;-69
2022/07/10 02:45:35;;;;;;;3.20;1.10;;;15.60;99.90;;;;;;5030093;28;20467;-69
2022/07/10 02:48:02;;;;;;;1.10;0.80;;;15.60;99.90;;;;;;5029605;28;20455;-69
2022/07/10 02:50:29;;;;;;;1.80;1.20;;;15.60;99.90;;;;;;5028409;28;20542;-68
2022/07/10 02:52:56;;;;;;;5.40;2.10;;;15.50;99.90;;;;;;5033020;28;20481;-68
2022/07/10 02:55:23;;;;;;;2.50;1.17;;;15.50;99.90;;;;;;5033239;28;20464;-68
2022/07/10 02:57:50;;;;;;;2.30;1.20;;;15.50;99.90;;;;;;5033539;28;20523;-68
2022/07/10 03:00:17;;;;;;;3.60;1.20;;;15.60;99.90;;;;;;5035531;28;20516;-68
2022/07/10 03:02:45;;;;;;;4.20;1.53;;;15.50;99.90;;;;;;5034131;28;20484;-68
2022/07/10 03:05:12;;;;;;;7.47;1.60;;;15.40;99.90;;;;;;5031916;28;20483;-68
2022/07/10 03:07:39;;;;;;;2.60;1.70;;;15.30;99.90;;;;;;5022990;28;20884;-68
2022/07/10 03:10:06;;;;;;;2.67;1.43;;;15.30;99.90;;;;;;5016131;28;20458;-69
2022/07/10 03:12:33;;;;;;;6.10;1.30;;;15.40;99.90;;;;;;5029051;28;20464;-68
2022/07/10 03:15:00;;;;;;;3.70;2.30;;;15.40;99.90;;;;;;5028516;28;20467;-69
2022/07/10 03:17:27;;;;;;;1.53;1.23;;;15.40;99.90;;;;;;5035830;28;20456;-69
2022/07/10 03:19:55;;;;;;;1.87;1.57;;;15.40;99.90;;;;;;5031470;28;20517;-69
2022/07/10 03:22:22;;;;;;;2.20;1.40;;;15.50;99.90;;;;;;5033665;28;20559;-69
2022/07/10 03:24:49;;;;;;;18.47;2.90;;;15.40;99.90;;;;;;5021295;28;20474;-68
2022/07/10 03:27:16;;;;;;;3.33;1.90;;;15.40;99.90;;;;;;5028527;28;20466;-68
2022/07/10 03:29:43;;;;;;;1.50;1.40;;;15.50;99.90;;;;;;5030685;28;20480;-68
2022/07/10 03:32:09;;;;;;;2.80;1.53;;;15.40;99.90;;;;;;5033514;28;20456;-69
2022/07/10 03:34:36;;;;;;;1.80;1.60;;;15.60;99.90;;;;;;5028285;28;20455;-68
2022/07/10 03:37:05;;;;;;;1.90;1.40;;;15.60;99.90;;;;;;5031695;28;20555;-69
2022/07/10 03:39:32;;;;;;;2.80;1.30;;;15.50;99.90;;;;;;5031806;28;20569;-70
2022/07/10 03:41:59;;;;;;;2.30;1.37;;;15.40;99.90;;;;;;5035301;28;20480;-70
2022/07/10 03:44:26;;;;;;;15.03;1.73;;;15.40;99.90;;;;;;5034124;28;20449;-70
2022/07/10 03:46:52;;;;;;;2.40;1.50;;;15.40;99.90;;;;;;5026898;28;20458;-70
2022/07/10 03:49:19;;;;;;;2.50;1.23;;;15.30;99.90;;;;;;5034428;28;20480;-70
2022/07/10 03:51:46;;;;;;;2.20;1.30;;;15.40;99.90;;;;;;5034673;28;20426;-70
2022/07/10 03:54:14;;;;;;;1.80;1.43;;;15.40;99.90;;;;;;5031685;28;20463;-70
2022/07/10 03:59:25;;;;;;;8.77;1.77;;;15.40;99.90;;;;;;5023805;28;20983;-70
2022/07/10 04:01:52;;;;;;;8.83;1.40;;;15.30;99.90;;;;;;5030762;28;20480;-70
2022/07/10 04:04:19;;;;;;;2.73;1.80;;;15.20;99.90;;;;;;5022982;28;20473;-69
2022/07/10 04:06:45;;;;;;;4.50;1.47;;;15.20;99.90;;;;;;5027316;28;20468;-70
2022/07/10 04:09:14;;;;;;;2.07;1.43;;;15.20;99.90;;;;;;5023663;28;20874;-70
2022/07/10 04:11:41;;;;;;;2.87;1.70;;;15.20;99.90;;;;;;5023422;28;20455;-71
2022/07/10 04:14:07;;;;;;;10.33;1.57;;;15.30;99.90;;;;;;5025125;28;20464;-70
2022/07/10 04:16:34;;;;;;;2.87;1.23;;;15.20;99.90;;;;;;5023140;28;20470;-70
2022/07/10 04:19:01;;;;;;;2.37;1.30;;;15.10;99.90;;;;;;5027095;28;20482;-70
2022/07/10 04:21:28;;;;;;;3.67;1.43;;;15.10;99.90;;;;;;5024285;28;21075;-70
2022/07/10 04:23:55;;;;;;;5.00;1.43;;;15.20;99.90;;;;;;5025342;28;21151;-71
2022/07/10 04:26:23;;;;;;;2.63;1.90;;;15.20;99.90;;;;;;5012560;28;21049;-70
2022/07/10 04:28:50;;;;;;;1.50;1.20;;;15.20;99.90;;;;;;5025837;28;21552;-70
2022/07/10 04:31:17;;;;;;;5.27;1.53;;;15.10;99.90;;;;;;5039589;28;20458;-70
2022/07/10 04:33:44;;;;;;;1.93;1.10;;;15.20;99.90;;;;;;5041855;28;20446;-70
2022/07/10 04:36:11;;;;;;;4.87;1.70;;;15.20;99.90;;;;;;5038799;28;20777;-70
2022/07/10 04:38:38;;;;;;;5.53;1.67;;;15.00;99.90;;;;;;5026796;28;20480;-70
2022/07/10 04:41:05;;;;;;;5.73;3.10;;;15.00;99.90;;;;;;5036465;28;20482;-70
2022/07/10 04:43:33;;;;;;;2.00;1.60;;;15.00;99.90;;;;;;5041902;28;20454;-70
2022/07/10 04:46:00;;;;;;;1.37;1.10;;;15.00;99.90;;;;;;5031582;28;20466;-70
2022/07/10 04:48:27;;;;;;;5.10;1.70;;;14.90;99.90;;;;;;5033423;28;20487;-70
2022/07/10 04:50:54;;;;;;;3.30;2.80;;;15.00;99.90;;;;;;5040289;28;20912;-70
2022/07/10 04:53:21;;;;;;;3.53;1.50;;;15.10;99.90;;;;;;5041016;28;20452;-70
2022/07/10 04:55:48;;;;;;;2.83;1.50;;;15.10;99.90;;;;;;5032965;28;21043;-70
2022/07/10 04:58:15;;;;;;;3.60;1.23;;;15.10;99.90;;;;;;5040066;28;20472;-71
2022/07/10 05:00:43;;;;;;;1.50;1.40;;;15.00;99.90;;;;;;5035558;28;20548;-71
2022/07/10 05:03:10;;;;;;;1.90;1.27;;;15.10;99.90;;;;;;5037746;28;20491;-70
2022/07/10 05:05:36;;;;;;;1.83;1.63;;;15.10;99.90;;;;;;5037605;28;20456;-70
2022/07/10 05:08:03;;;;;;;4.37;1.63;;;15.20;99.90;;;;;;5040704;28;20468;-70
2022/07/10 05:10:31;;;;;;;2.43;1.50;;;15.30;99.90;;;;;;5027090;28;20836;-71
2022/07/10 05:12:57;;;;;;;3.60;1.50;;;15.40;99.90;;;;;;5036931;28;20773;-70
2022/07/10 05:15:25;;;;;;;2.10;1.60;;;15.50;99.90;;;;;;5039349;28;20809;-70
2022/07/10 05:17:53;;;;;;;4.17;1.77;;;15.50;99.90;;;;;;5038046;28;20456;-70
2022/07/10 05:20:20;;;;;;;1.93;1.50;;;15.60;99.90;;;;;;5032482;28;20495;-70
2022/07/10 05:22:47;;;;;;;5.87;1.50;;;16.00;99.90;;;;;;5038878;28;20492;-71
2022/07/10 05:25:14;;;;;;;4.73;1.43;;;16.50;99.90;;;;;;5040941;28;20456;-71
2022/07/10 05:27:41;;;;;;;2.90;1.20;;;17.00;99.90;;;;;;5033424;28;20464;-70
2022/07/10 05:30:09;;;;;;;1.97;1.30;;;17.20;99.90;;;;;;5032792;28;20484;-71
2022/07/10 05:32:42;;;;;;;3.43;1.67;;;17.40;99.90;;;;;;5042327;28;20487;-71
2022/07/10 05:35:11;;;;;;;1.90;1.40;;;17.60;99.90;;;;;;5035266;28;20870;-70
2022/07/10 05:37:38;;;;;;;3.40;1.40;;;17.20;99.90;;;;;;5035038;28;20458;-70
2022/07/10 05:40:06;;;;;;;2.93;1.40;;;16.90;99.90;;;;;;5032805;28;20663;-70
2022/07/10 05:42:33;;;;;;;4.40;1.70;;;16.80;99.90;;;;;;5028570;28;20485;-70
2022/07/10 05:45:00;;;;;;;2.40;2.20;;;16.70;99.90;;;;;;5029524;28;20470;-71
2022/07/10 05:47:27;;;;;;;3.20;1.17;;;16.80;99.90;;;;;;5032522;28;22323;-71
2022/07/10 05:49:54;;;;;;;3.30;1.23;;;17.00;99.90;;;;;;5021431;28;20495;-70
2022/07/10 05:52:22;;;;;;;4.27;2.57;;;17.50;99.90;;;;;;5029549;28;20807;-70
2022/07/10 05:54:49;;;;;;;3.53;1.17;;;17.80;99.90;;;;;;5035508;28;20892;-70
2022/07/10 05:57:16;;;;;;;1.73;1.30;;;17.40;99.90;;;;;;5036067;28;20456;-70
2022/07/10 05:59:42;;;;;;;5.40;1.90;;;17.60;99.90;;;;;;5035873;28;20844;-71
2022/07/10 06:02:09;;;;;;;3.03;1.57;;;17.90;99.90;;;;;;5037071;28;20480;-70
2022/07/10 06:04:36;;;;;;;3.17;2.13;;;18.00;99.90;;;;;;5027415;28;21564;-70
2022/07/10 06:07:03;;;;;;;1.93;1.07;;;18.30;99.90;;;;;;5036241;28;20462;-70
2022/07/10 06:09:32;;;;;;;11.03;1.50;;;18.10;99.90;;;;;;5032750;28;20484;-70
2022/07/10 06:11:58;;;;;;;3.83;1.17;;;17.90;99.90;;;;;;5040385;28;20538;-70
2022/07/10 06:14:25;;;;;;;2.40;1.37;;;18.50;99.90;;;;;;5026474;28;20571;-70
2022/07/10 06:16:52;;;;;;;3.63;1.13;;;18.90;99.90;;;;;;5037429;28;20456;-71
2022/07/10 06:19:19;;;;;;;1.83;1.13;;;18.70;99.90;;;;;;5042394;28;20591;-71
2022/07/10 06:21:46;;;;;;;2.37;1.07;;;18.80;99.90;;;;;;5035850;28;20466;-70
2022/07/10 06:24:12;;;;;;;9.67;2.00;;;18.60;99.90;;;;;;5033235;28;20467;-71
2022/07/10 06:26:41;;;;;;;4.40;1.50;;;19.20;99.90;;;;;;5031214;28;20467;-70
2022/07/10 06:29:08;;;;;;;3.83;1.20;;;19.30;99.90;;;;;;5022637;28;20655;-70
2022/07/10 06:31:34;;;;;;;2.83;1.40;;;18.90;99.90;;;;;;5027418;28;20991;-70
2022/07/10 06:34:01;;;;;;;4.07;1.30;;;18.10;99.90;;;;;;5034872;28;20452;-70
2022/07/10 06:36:28;;;;;;;2.33;1.13;;;18.10;99.90;;;;;;5029875;28;20461;-70
2022/07/10 06:38:55;;;;;;;3.90;1.00;;;18.10;99.90;;;;;;5030526;28;20498;-71
2022/07/10 06:41:22;;;;;;;2.47;1.23;;;18.10;99.90;;;;;;5034904;28;20475;-70
2022/07/10 06:43:50;;;;;;;4.97;2.30;;;18.10;99.90;;;;;;5029433;28;20481;-71
2022/07/10 06:46:17;;;;;;;2.70;1.00;;;17.90;99.90;;;;;;5029924;28;20461;-70
2022/07/10 06:48:43;;;;;;;1.40;1.17;;;17.50;99.90;;;;;;5026389;28;20487;-71
2022/07/10 06:51:10;;;;;;;4.60;1.30;;;17.40;99.90;;;;;;5021542;28;20455;-71
2022/07/10 06:53:37;;;;;;;2.23;1.10;;;17.60;99.90;;;;;;5034145;28;20959;-70
2022/07/10 06:56:05;;;;;;;3.43;1.50;;;17.60;99.90;;;;;;5036556;28;20556;-71
2022/07/10 06:58:31;;;;;;;4.80;2.50;;;17.70;99.90;;;;;;5034842;28;20522;-71
2022/07/10 07:00:59;;;;;;;1.93;1.20;;;17.70;99.90;;;;;;5031902;28;20562;-71
2022/07/10 07:03:26;;;;;;;2.90;1.00;;;17.70;99.90;;;;;;5016738;28;21047;-70
2022/07/10 07:05:53;;;;;;;3.57;1.20;;;17.40;99.90;;;;;;5025347;28;20463;-71
2022/07/10 07:08:20;;;;;;;2.07;1.33;;;17.20;99.90;;;;;;5020455;28;20483;-70
2022/07/10 07:10:47;;;;;;;5.43;1.20;;;17.00;99.90;;;;;;5009343;28;20463;-70
2022/07/10 07:13:14;;;;;;;4.77;1.37;;;17.00;99.90;;;;;;5014629;28;20448;-70
2022/07/10 07:15:46;;;;;;;3.37;1.23;;;16.70;99.90;;;;;;5027719;28;20541;-70
2022/07/10 07:18:16;;;;;;;1.43;1.20;;;16.60;99.90;;;;;;5034343;28;20464;-70
2022/07/10 07:23:27;;;;;;;2.93;1.30;;;16.90;99.90;;;;;;5024812;28;20996;-73
2022/07/10 07:25:55;;;;;;;4.83;1.43;;;16.80;99.90;;;;;;5037918;28;20543;-72
2022/07/10 07:28:22;;;;;;;3.67;1.20;;;16.90;99.90;;;;;;5039538;28;20468;-72
2022/07/10 07:30:49;;;;;;;7.33;1.37;;;16.90;99.90;;;;;;5020788;28;21064;-72
2022/07/10 07:33:18;;;;;;;6.80;1.20;;;16.90;99.90;;;;;;5022929;28;20465;-72
2022/07/10 07:35:45;;;;;;;4.00;2.27;;;16.50;99.90;;;;;;5028620;28;20543;-71
2022/07/10 07:38:12;;;;;;;2.80;1.03;;;16.40;99.90;;;;;;5031228;28;20828;-73
2022/07/10 07:40:39;;;;;;;7.50;1.10;;;16.60;99.90;;;;;;5024794;28;20485;-73
2022/07/10 07:43:06;;;;;;;15.90;2.17;;;16.60;99.90;;;;;;5035822;28;20498;-73
2022/07/10 07:45:33;;;;;;;1.30;1.20;;;16.60;99.90;;;;;;5036276;28;24388;-73
2022/07/10 07:48:01;;;;;;;2.50;1.27;;;16.70;99.90;;;;;;5037378;28;21286;-73
2022/07/10 07:50:32;;;;;;;5.20;1.30;;;16.70;99.90;;;;;;5040092;28;20518;-73
2022/07/10 07:52:59;;;;;;;1.60;1.50;;;16.80;99.90;;;;;;5043984;28;20456;-73
2022/07/10 07:55:27;;;;;;;2.90;1.23;;;16.90;99.90;;;;;;5038018;28;20546;-73
2022/07/10 07:57:55;;;;;;;11.53;1.60;;;16.70;99.90;;;;;;5033000;28;20467;-73
2022/07/10 08:00:24;;;;;;;5.53;1.53;;;16.80;99.90;;;;;;5036294;28;20480;-73
2022/07/10 08:02:52;;;;;;;1.50;1.03;;;17.00;99.90;;;;;;5025973;28;20487;-73
2022/07/10 08:05:19;;;;;;;3.63;1.40;;;17.00;99.90;;;;;;5027610;28;20464;-73
2022/07/10 08:07:49;;;;;;;3.47;1.60;;;17.00;99.90;;;;;;5033870;28;20547;-74
2022/07/10 08:10:20;;;;;;;1.63;1.07;;;16.90;99.90;;;;;;5036170;28;20492;-73
2022/07/10 08:12:47;;;;;;;3.90;1.40;;;17.00;99.90;;;;;;5034727;28;20555;-74
2022/07/10 08:15:16;;;;;;;2.53;1.23;;;17.10;99.90;;;;;;5047592;28;20775;-73
2022/07/10 08:17:43;;;;;;;3.70;3.23;;;17.20;99.90;;;;;;5036932;28;20460;-73
2022/07/10 08:20:13;;;;;;;5.03;1.40;;;17.10;99.90;;;;;;5029216;28;20811;-73
2022/07/10 08:22:41;;;;;;;7.13;2.00;;;17.10;99.90;;;;;;5028141;28;20476;-73
2022/07/10 08:25:10;;;;;;;4.33;1.70;;;16.90;99.90;;;;;;5036744;28;20452;-73
2022/07/10 08:27:37;;;;;;;1.83;1.20;;;16.70;99.90;;;;;;5031675;28;20460;-73
2022/07/10 08:30:06;;;;;;;5.10;1.50;;;16.70;99.90;;;;;;5027269;28;20472;-73
2022/07/10 08:32:34;;;;;;;4.37;1.20;;;16.80;99.90;;;;;;5038910;28;20456;-73
2022/07/10 08:35:01;;;;;;;4.63;2.13;;;16.70;99.90;;;;;;5034393;28;20544;-73
2022/07/10 08:37:28;;;;;;;2.03;1.30;;;16.80;99.90;;;;;;5027331;28;20512;-74
2022/07/10 08:39:55;;;;;;;8.20;1.33;;;16.90;99.90;;;;;;5033871;28;20578;-74
2022/07/10 08:42:24;;;;;;;2.53;1.10;;;16.90;99.90;;;;;;5046254;28;20463;-73
2022/07/10 08:44:52;;;;;;;2.83;1.77;;;16.90;99.90;;;;;;5041823;28;20463;-73
2022/07/10 08:47:22;;;;;;;3.20;1.60;;;16.60;99.90;;;;;;5031768;28;20455;-73
2022/07/10 08:49:49;;;;;;;4.03;1.40;;;16.50;99.90;;;;;;5040444;28;20472;-73
2022/07/10 08:52:27;;;;;;;2.13;1.47;;;16.60;99.90;;;;;;5039518;28;20691;-73
2022/07/10 08:54:54;;;;;;;3.67;1.10;;;16.60;99.90;;;;;;5031971;28;20497;-73
2022/07/10 08:57:23;;;;;;;4.00;1.50;;;16.40;99.90;;;;;;5036529;28;20463;-73
2022/07/10 08:59:50;;;;;;;1.80;1.40;;;16.40;99.90;;;;;;5038630;28;20511;-73
2022/07/10 09:02:17;;;;;;;2.60;1.20;;;16.40;99.90;;;;;;5032060;28;20464;-73
2022/07/10 09:04:43;;;;;;;2.60;1.90;;;16.50;99.90;;;;;;5039856;28;20475;-73
2022/07/10 09:07:11;;;;;;;2.77;1.70;;;16.40;99.90;;;;;;5044290;28;20466;-73
2022/07/10 09:09:53;;;;;;;2.70;1.90;;;16.40;99.90;;;;;;5043709;28;20484;-73
2022/07/10 09:12:25;;;;;;;3.20;1.77;;;16.40;99.90;;;;;;5037005;28;20472;-74
2022/07/10 09:14:53;;;;;;;4.13;2.13;;;16.30;99.90;;;;;;5037053;28;20472;-72
2022/07/10 09:17:20;;;;;;;3.60;1.80;;;16.50;99.90;;;;;;5032875;28;20832;-73
2022/07/10 09:19:47;;;;;;;5.77;2.50;;;16.40;99.90;;;;;;5038161;28;20490;-74
2022/07/10 09:22:14;;;;;;;3.00;1.50;;;16.40;99.90;;;;;;5035857;28;20459;-73
2022/07/10 09:24:49;;;;;;;6.70;1.93;;;16.40;99.90;;;;;;5035781;28;20578;-73
2022/07/10 09:27:16;;;;;;;6.47;2.60;;;16.50;99.90;;;;;;5032149;28;20459;-73
2022/07/10 09:29:51;;;;;;;3.57;1.83;;;16.60;99.90;;;;;;5039083;28;21097;-73
2022/07/10 09:32:18;;;;;;;4.07;3.77;;;16.70;99.90;;;;;;5044291;28;20563;-72
2022/07/10 09:34:47;;;;;;;10.63;2.10;;;16.70;99.90;;;;;;5044645;28;20459;-74
2022/07/10 09:37:21;;;;;;;5.70;1.90;;;16.70;99.90;;;;;;5040283;28;20537;-71
2022/07/10 09:39:56;;;;;;;3.53;2.10;;;16.90;99.90;;;;;;5026214;28;20486;-72
2022/07/10 09:42:34;;;;;;;3.67;2.07;;;17.10;99.90;;;;;;5031501;28;20471;-73
2022/07/10 09:45:19;;;;;;;2.20;1.90;;;17.20;99.90;;;;;;5036637;28;20963;-73
2022/07/10 09:47:55;;;;;;;3.87;2.60;;;16.90;99.90;;;;;;5041686;28;20456;-73
2022/07/10 09:50:24;;;;;;;2.00;1.70;;;17.10;99.90;;;;;;5037463;28;20899;-73
2022/07/10 09:52:54;;;;;;;12.23;2.10;;;17.10;99.90;;;;;;5034594;28;20522;-74
2022/07/10 09:55:22;;;;;;;4.13;2.40;;;17.00;99.90;;;;;;5037740;28;20427;-73
2022/07/10 09:57:55;;;;;;;7.10;2.50;;;17.00;99.90;;;;;;5037175;28;21072;-73
2022/07/10 10:00:26;;;;;;;6.63;3.10;;;17.00;99.90;;;;;;5035431;28;20484;-73
2022/07/10 10:02:57;;;;;;;3.03;2.73;;;16.80;99.90;;;;;;5035630;28;20438;-74
2022/07/10 10:05:32;;;;;;;5.47;2.70;;;16.90;99.90;;;;;;5033074;28;20475;-73
2022/07/10 10:08:03;;;;;;;2.23;2.03;;;17.10;99.90;;;;;;5032368;28;20467;-74
2022/07/10 10:10:32;;;;;;;3.10;2.30;;;17.20;99.90;;;;;;5036976;28;20588;-74
2022/07/10 10:15:56;;;;;;;3.70;2.43;;;17.50;99.90;;;;;;5032977;28;20529;-74
2022/07/10 10:18:25;;;;;;;4.63;2.60;;;17.60;99.90;;;;;;5025178;28;20459;-73
2022/07/10 10:20:52;;;;;;;4.53;2.27;;;17.50;99.90;;;;;;5031819;28;20495;-73
2022/07/10 10:23:21;;;;;;;5.50;3.27;;;17.40;99.90;;;;;;5029753;28;20475;-72
2022/07/10 10:25:49;;;;;;;10.10;2.93;;;17.20;99.90;;;;;;5033338;28;20438;-73
2022/07/10 10:28:20;;;;;;;3.40;2.53;;;16.90;99.90;;;;;;5037046;28;20960;-72
2022/07/10 10:30:48;;;;;;;6.60;3.70;;;16.80;99.90;;;;;;5036118;28;20478;-72
2022/07/10 10:33:48;;;;;;;5.37;2.80;;;16.60;99.90;;;;;;5035084;28;20451;-73
2022/07/10 10:36:45;;;;;;;2.90;2.50;;;16.80;99.90;;;;;;5038775;28;20468;-73
2022/07/10 10:39:13;;;;;;;3.47;2.63;;;16.90;99.90;;;;;;5032530;28;20897;-72
2022/07/10 10:41:42;;;;;;;4.63;2.10;;;16.90;99.90;;;;;;5026957;28;20508;-73
2022/07/10 10:44:35;;;;;;;3.30;1.90;;;17.00;99.90;;;;;;5035582;28;20495;-73
2022/07/10 10:47:06;;;;;;;7.50;2.00;;;17.60;99.90;;;;;;5027991;28;20463;-72
2022/07/10 10:49:59;;;;;;;4.63;2.10;;;18.00;99.90;;;;;;5034982;28;20826;-74
2022/07/10 10:52:26;;;;;;;2.20;2.00;;;18.00;99.90;;;;;;5020129;28;20859;-74
2022/07/10 10:55:08;;;;;;;3.77;2.13;;;18.00;99.90;;;;;;5036129;28;20702;-73
2022/07/10 10:57:48;;;;;;;6.03;2.87;;;18.10;99.90;;;;;;5038657;28;20533;-73
2022/07/10 11:00:33;;;;;;;4.10;2.70;;;18.20;99.90;;;;;;5040170;28;21192;-77
2022/07/10 11:03:14;;;;;;;4.33;3.57;;;18.20;99.90;;;;;;5031133;28;20467;-76
2022/07/10 11:05:43;;;;;;;3.20;2.73;;;18.50;99.90;;;;;;5037518;28;20517;-76
2022/07/10 11:08:11;;;;;;;5.50;2.97;;;18.50;99.90;;;;;;5035055;28;20827;-76
2022/07/10 11:10:40;;;;;;;4.10;3.20;;;18.50;99.90;;;;;;5038037;28;20471;-77
2022/07/10 11:13:08;;;;;;;4.50;3.27;;;18.70;99.90;;;;;;5020050;28;20468;-76
2022/07/10 11:15:38;;;;;;;5.83;3.50;;;18.60;99.90;;;;;;5021169;28;20468;-76
2022/07/10 11:18:07;;;;;;;10.57;5.13;;;18.60;99.90;;;;;;5029152;28;20534;-75
2022/07/10 11:20:39;;;;;;;7.40;5.47;;;18.90;99.90;;;;;;5023657;28;20486;-74
2022/07/10 11:23:48;;;;;;;7.87;4.43;;;19.00;99.90;;;;;;5038655;28;20464;-75
2022/07/10 11:26:24;;;;;;;6.20;4.07;;;19.30;99.90;;;;;;5042108;28;20533;-76
2022/07/10 11:28:53;;;;;;;7.40;5.63;;;19.40;99.90;;;;;;5037137;28;20459;-75
2022/07/10 11:31:21;;;;;;;5.57;3.90;;;19.70;99.90;;;;;;5039327;28;20459;-75
2022/07/10 11:33:49;;;;;;;4.63;4.03;;;19.90;99.90;;;;;;5045251;28;20462;-74
2022/07/10 11:36:18;;;;;;;4.10;3.77;;;19.90;99.90;;;;;;5047169;28;20478;-75
2022/07/10 11:38:46;;;;;;;3.70;3.30;;;19.60;99.90;;;;;;5045007;28;20459;-75
2022/07/10 11:41:14;;;;;;;2.43;2.23;;;19.30;99.90;;;;;;5048003;28;20986;-76
2022/07/10 11:43:52;;;;;;;4.90;2.93;;;19.00;99.90;;;;;;5037059;28;20483;-75
2022/07/10 11:46:21;;;;;;;3.70;3.17;;;19.00;99.90;;;;;;5040409;28;20456;-76
2022/07/10 11:48:49;;;;;;;4.10;2.97;;;19.00;99.90;;;;;;5046865;28;20468;-76
2022/07/10 11:51:27;;;;;;;3.43;2.87;;;19.30;99.90;;;;;;5047659;28;20462;-76
2022/07/10 11:53:57;;;;;;;3.13;2.10;;;19.70;99.90;;;;;;5045523;28;20452;-76
2022/07/10 11:56:24;;;;;;;4.73;2.17;;;19.80;99.90;;;;;;5038810;28;20509;-75
2022/07/10 11:59:01;;;;;;;2.30;2.10;;;19.90;99.90;;;;;;5023072;28;20459;-76
2022/07/10 12:01:30;;;;;;;3.43;1.93;;;19.70;99.90;;;;;;5014925;28;20842;-76
2022/07/10 12:03:58;;;;;;;1.87;1.57;;;19.60;99.90;;;;;;5026951;28;20485;-77
2022/07/10 12:06:26;;;;;;;1.50;1.30;;;19.40;99.90;;;;;;5043531;28;20975;-76
2022/07/10 12:08:53;;;;;;;1.80;1.57;;;19.10;99.90;;;;;;5051977;28;20444;-75
2022/07/10 12:11:22;;;;;;;1.73;1.60;;;18.60;99.90;;;;;;5048443;28;20464;-76
2022/07/10 12:13:50;;;;;;;3.83;1.93;;;18.30;99.90;;;;;;5048242;28;20563;-76
2022/07/10 12:16:18;;;;;;;3.43;1.93;;;17.90;99.90;;;;;;5050949;28;21182;-76
2022/07/10 12:18:46;;;;;;;11.63;3.70;;;18.10;99.90;;;;;;5046776;28;21033;-76
2022/07/10 12:21:14;;;;;;;2.20;1.80;;;18.10;99.90;;;;;;5042019;28;20463;-77
2022/07/10 12:23:42;;;;;;;1.60;1.50;;;18.30;99.90;;;;;;5047837;28;20459;-76
2022/07/10 12:26:13;;;;;;;2.10;1.57;;;18.60;99.90;;;;;;5048286;28;20502;-77
2022/07/10 12:28:51;;;;;;;1.47;1.27;;;18.80;99.90;;;;;;5050634;28;20955;-76
2022/07/10 12:31:26;;;;;;;1.67;1.50;;;19.20;99.90;;;;;;5045122;28;20617;-74
2022/07/10 12:33:57;;;;;;;1.57;1.47;;;19.30;99.90;;;;;;5045428;28;20505;-76
2022/07/10 12:36:24;;;;;;;1.40;0.90;;;18.90;99.90;;;;;;5047139;28;20524;-76
2022/07/10 12:38:57;;;;;;;2.27;1.80;;;18.80;99.90;;;;;;5048859;28;20457;-76
2022/07/10 12:41:25;;;;;;;1.83;1.57;;;19.00;99.90;;;;;;5045224;28;20758;-76
2022/07/10 12:43:54;;;;;;;1.57;1.40;;;19.40;99.90;;;;;;5045046;28;20456;-76
2022/07/10 12:46:23;;;;;;;1.30;1.20;;;19.80;99.90;;;;;;5045276;28;20445;-75
2022/07/10 12:49:04;;;;;;;1.80;1.70;;;20.00;99.90;;;;;;5048019;28;20559;-77
2022/07/10 12:51:32;;;;;;;2.20;1.60;;;20.10;99.90;;;;;;5048242;28;20447;-76
2022/07/10 12:53:59;;;;;;;3.83;1.37;;;20.00;99.90;;;;;;5045970;28;20536;-76
2022/07/10 12:56:36;;;;;;;2.17;1.97;;;19.80;99.90;;;;;;5040332;28;21118;-76
2022/07/10 12:59:13;;;;;;;1.20;1.00;;;19.30;99.90;;;;;;5044864;28;23565;-76
2022/07/10 13:01:42;;;;;;;1.40;1.30;;;19.10;99.90;;;;;;5047351;28;20509;-76
2022/07/10 13:04:09;;;;;;;1.50;1.30;;;19.30;99.90;;;;;;5046341;28;20487;-75